Wetterdaten: Woche 06.06.05 - 12.06.05 (KW23)
Datum Zeit Temperatur Luftfeuchte Luftdruck Niederschlag Wind Richtung Sonne Solar Taupunkt Windchill
06.06.2005 00:00 15.5 C 63 % 1019.5 hPa 0.0 l/m 11.6 km/h (2 Bft) W-NW 0.00 h 0 W/m 8.4 C 15.5 C
06.06.2005 01:00 15.1 C 63 % 1019.6 hPa 0.0 l/m 2.4 km/h (1 Bft) W-NW 0.00 h 0 W/m 8.0 C 15.1 C
06.06.2005 02:00 14.8 C 65 % 1019.6 hPa 0.0 l/m 4.2 km/h (1 Bft) W-NW 0.00 h 0 W/m 8.3 C 14.8 C
06.06.2005 03:00 14.4 C 68 % 1019.1 hPa 0.0 l/m 6.6 km/h (2 Bft) W-NW 0.00 h 0 W/m 8.6 C 14.4 C
06.06.2005 04:00 13.9 C 72 % 1018.7 hPa 0.0 l/m 7.3 km/h (2 Bft) W-NW 0.00 h 0 W/m 9.0 C 13.9 C
06.06.2005 05:00 13.8 C 73 % 1019.0 hPa 0.0 l/m 11.0 km/h (2 Bft) W-NW 0.00 h 5 W/m 8.9 C 13.8 C
06.06.2005 06:00 13.7 C 72 % 1019.7 hPa 0.0 l/m 2.6 km/h (1 Bft) W-NW 0.00 h 27 W/m 8.7 C 13.7 C
06.06.2005 07:00 13.9 C 71 % 1019.8 hPa 0.0 l/m 2.4 km/h (1 Bft) W-NW 0.00 h 99 W/m 8.7 C 13.9 C
06.06.2005 08:00 14.5 C 69 % 1019.7 hPa 0.0 l/m 3.8 km/h (1 Bft) W-NW 0.92 h 357 W/m 9.0 C 14.5 C
06.06.2005 09:00 15.8 C 62 % 1019.5 hPa 0.0 l/m 5.1 km/h (1 Bft) W-NW 0.93 h 552 W/m 8.5 C 15.8 C
06.06.2005 10:00 16.4 C 59 % 1019.4 hPa 0.0 l/m 11.2 km/h (2 Bft) W-NW 0.32 h 354 W/m 8.3 C 16.4 C
06.06.2005 11:00 17.4 C 53 % 1019.3 hPa 0.0 l/m 12.9 km/h (3 Bft) W-NW 0.97 h 667 W/m 7.8 C 17.4 C
06.06.2005 12:00 17.7 C 52 % 1019.3 hPa 0.0 l/m 14.9 km/h (3 Bft) W-NW 0.78 h 610 W/m 7.8 C 17.7 C
06.06.2005 13:00 18.6 C 52 % 1019.1 hPa 0.0 l/m 13.6 km/h (3 Bft) W-NW 0.88 h 578 W/m 8.5 C 18.6 C
06.06.2005 14:00 18.4 C 55 % 1019.2 hPa 0.0 l/m 14.3 km/h (3 Bft) W-NW 0.35 h 370 W/m 9.1 C 18.4 C
06.06.2005 15:00 17.5 C 59 % 1019.3 hPa 0.0 l/m 17.0 km/h (3 Bft) NW 0.00 h 206 W/m 9.5 C 17.5 C
06.06.2005 16:00 17.2 C 61 % 1019.3 hPa 0.0 l/m 15.2 km/h (3 Bft) NW 0.00 h 149 W/m 9.7 C 17.2 C
06.06.2005 17:00 16.3 C 71 % 1019.4 hPa 0.0 l/m 10.0 km/h (2 Bft) W-NW 0.00 h 137 W/m 11.1 C 16.3 C
06.06.2005 18:00 15.2 C 80 % 1019.6 hPa 0.0 l/m 10.6 km/h (2 Bft) NW 0.00 h 93 W/m 11.8 C 15.2 C
06.06.2005 19:00 14.7 C 83 % 1019.6 hPa 0.0 l/m 8.5 km/h (2 Bft) W-NW 0.00 h 72 W/m 11.8 C 14.7 C
06.06.2005 20:00 14.2 C 91 % 1020.6 hPa 0.3 l/m 2.5 km/h (1 Bft) W-NW 0.00 h 23 W/m 12.7 C 14.2 C
06.06.2005 21:00 14.1 C 93 % 1020.8 hPa 0.0 l/m 4.9 km/h (1 Bft) W-NW 0.00 h 4 W/m 13.0 C 14.1 C
06.06.2005 22:00 14.1 C 90 % 1021.7 hPa 0.0 l/m 2.0 km/h (1 Bft) W-NW 0.00 h 0 W/m 12.4 C 14.1 C
06.06.2005 23:00 14.0 C 89 % 1021.8 hPa 0.3 l/m 0.6 km/h (0 Bft) W-NW 0.00 h 0 W/m 12.2 C 14.0 C
07.06.2005 00:00 13.7 C 99 % 1021.9 hPa 4.9 l/m 0.0 km/h (0 Bft) N 0.00 h 0 W/m 13.5 C 13.7 C
07.06.2005 01:00 13.6 C 100 % 1022.3 hPa 0.0 l/m 0.1 km/h (0 Bft) N 0.00 h 0 W/m 13.6 C 13.6 C
07.06.2005 02:00 13.6 C 100 % 1022.1 hPa 0.0 l/m 0.0 km/h (0 Bft) N 0.00 h 0 W/m 13.6 C 13.6 C
07.06.2005 03:00 13.3 C 100 % 1023.0 hPa 0.0 l/m 0.0 km/h (0 Bft) N 0.00 h 0 W/m 13.3 C 13.3 C
07.06.2005 04:00 12.3 C 99 % 1023.2 hPa 0.0 l/m 1.1 km/h (0 Bft) O 0.00 h 0 W/m 12.2 C 12.3 C
07.06.2005 05:00 11.0 C 96 % 1024.3 hPa 0.3 l/m 2.9 km/h (1 Bft) SO 0.00 h 7 W/m 10.5 C 11.0 C
07.06.2005 06:00 10.6 C 92 % 1024.9 hPa 0.0 l/m 1.5 km/h (1 Bft) W-NW 0.00 h 50 W/m 9.3 C 10.6 C
07.06.2005 07:00 10.7 C 90 % 1025.9 hPa 0.0 l/m 0.5 km/h (0 Bft) NO 0.00 h 78 W/m 9.1 C 10.7 C
07.06.2005 08:00 11.3 C 84 % 1026.7 hPa 0.0 l/m 1.1 km/h (1 Bft) S-SW 0.00 h 176 W/m 8.7 C 11.3 C
07.06.2005 09:00 12.2 C 81 % 1027.3 hPa 0.0 l/m 0.2 km/h (0 Bft) N 0.07 h 215 W/m 9.0 C 12.2 C
07.06.2005 10:00 13.2 C 80 % 1027.1 hPa 0.0 l/m 2.2 km/h (1 Bft) O-SO 0.77 h 560 W/m 9.8 C 13.2 C
07.06.2005 11:00 14.5 C 74 % 1026.9 hPa 0.0 l/m 3.3 km/h (1 Bft) O-SO 0.40 h 465 W/m 9.9 C 14.5 C
07.06.2005 12:00 15.6 C 59 % 1026.8 hPa 0.0 l/m 13.4 km/h (3 Bft) W-NW 0.93 h 817 W/m 7.6 C 15.6 C
07.06.2005 13:00 16.8 C 46 % 1026.6 hPa 0.0 l/m 20.4 km/h (4 Bft) W-NW 1.00 h 903 W/m 5.0 C 16.8 C
07.06.2005 14:00 17.5 C 40 % 1026.5 hPa 0.0 l/m 20.4 km/h (4 Bft) W-NW 1.00 h 928 W/m 3.6 C 17.5 C
07.06.2005 15:00 17.3 C 43 % 1027.2 hPa 0.0 l/m 12.2 km/h (3 Bft) W-NW 0.60 h 516 W/m 4.5 C 17.3 C
07.06.2005 16:00 16.5 C 48 % 1027.7 hPa 0.0 l/m 4.7 km/h (1 Bft) NO 0.07 h 255 W/m 5.3 C 16.5 C
07.06.2005 17:00 16.4 C 45 % 1027.7 hPa 0.0 l/m 9.5 km/h (2 Bft) O 0.40 h 342 W/m 4.5 C 16.4 C
07.06.2005 18:00 15.5 C 43 % 1028.5 hPa 0.0 l/m 9.0 km/h (2 Bft) O-NO 0.20 h 198 W/m 3.0 C 15.5 C
07.06.2005 19:00 14.5 C 41 % 1029.5 hPa 0.0 l/m 12.7 km/h (3 Bft) O-NO 0.77 h 212 W/m 1.3 C 14.5 C
07.06.2005 20:00 13.1 C 44 % 1030.7 hPa 0.0 l/m 6.9 km/h (2 Bft) NO 0.03 h 34 W/m 1.2 C 13.1 C
07.06.2005 21:00 11.7 C 45 % 1031.8 hPa 0.0 l/m 1.7 km/h (1 Bft) NO 0.07 h 8 W/m 0.3 C 11.7 C
07.06.2005 22:00 11.1 C 46 % 1032.6 hPa 0.0 l/m 0.1 km/h (0 Bft) N 0.00 h 0 W/m 0.0 C 11.1 C
07.06.2005 23:00 10.0 C 51 % 1032.8 hPa 0.0 l/m 0.3 km/h (0 Bft) NO 0.00 h 0 W/m 0.4 C 10.0 C
08.06.2005 00:00 8.4 C 60 % 1033.0 hPa 0.0 l/m 0.9 km/h (0 Bft) O-NO 0.00 h 0 W/m 1.1 C 8.3 C
08.06.2005 01:00 6.8 C 70 % 1033.2 hPa 0.0 l/m 0.7 km/h (0 Bft) O-SO 0.00 h 0 W/m 1.7 C 6.7 C
08.06.2005 02:00 5.2 C 83 % 1033.4 hPa 0.0 l/m 0.2 km/h (0 Bft) N 0.00 h 0 W/m 2.6 C 5.2 C
08.06.2005 03:00 4.1 C 90 % 1033.2 hPa 0.0 l/m 1.5 km/h (1 Bft) O-SO 0.00 h 0 W/m 2.6 C 3.8 C
08.06.2005 04:00 3.5 C 95 % 1032.6 hPa 0.0 l/m 0.6 km/h (0 Bft) O-SO 0.00 h 0 W/m 2.7 C 3.4 C
08.06.2005 05:00 3.5 C 97 % 1032.6 hPa 0.0 l/m 0.0 km/h (0 Bft) N 0.07 h 13 W/m 3.0 C 3.5 C
08.06.2005 06:00 5.0 C 90 % 1032.4 hPa 0.0 l/m 0.0 km/h (0 Bft) N 0.00 h 58 W/m 3.3 C 5.0 C
08.06.2005 07:00 7.5 C 71 % 1032.3 hPa 0.0 l/m 1.5 km/h (1 Bft) N-NO 1.00 h 255 W/m 2.6 C 7.4 C
08.06.2005 08:00 9.9 C 65 % 1032.8 hPa 0.0 l/m 5.5 km/h (1 Bft) NO 1.00 h 425 W/m 3.6 C 9.5 C
08.06.2005 09:00 12.2 C 58 % 1032.4 hPa 0.0 l/m 13.3 km/h (3 Bft) O-SO 1.00 h 565 W/m 4.3 C 12.2 C
08.06.2005 10:00 13.6 C 54 % 1032.0 hPa 0.0 l/m 19.8 km/h (3 Bft) O-SO 1.00 h 612 W/m 4.5 C 13.6 C
08.06.2005 11:00 14.9 C 49 % 1031.0 hPa 0.0 l/m 19.3 km/h (3 Bft) O-SO 0.78 h 676 W/m 4.3 C 14.9 C
08.06.2005 12:00 16.1 C 45 % 1030.9 hPa 0.0 l/m 13.1 km/h (3 Bft) O-SO 0.68 h 719 W/m 4.0 C 16.1 C
08.06.2005 13:00 16.2 C 44 % 1030.9 hPa 0.0 l/m 18.0 km/h (3 Bft) O-SO 0.60 h 658 W/m 3.8 C 16.2 C
08.06.2005 14:00 16.8 C 41 % 1030.8 hPa 0.0 l/m 10.6 km/h (2 Bft) O-SO 0.70 h 620 W/m 3.5 C 16.8 C
08.06.2005 15:00 16.9 C 39 % 1030.8 hPa 0.0 l/m 14.1 km/h (3 Bft) O-SO 0.50 h 465 W/m 3.0 C 16.9 C
08.06.2005 16:00 17.6 C 38 % 1030.1 hPa 0.0 l/m 10.5 km/h (2 Bft) O 1.00 h 547 W/m 3.0 C 17.6 C
08.06.2005 17:00 17.4 C 38 % 1029.7 hPa 0.0 l/m 7.2 km/h (2 Bft) SO 1.00 h 379 W/m 3.0 C 17.4 C
08.06.2005 18:00 17.3 C 37 % 1029.7 hPa 0.0 l/m 7.1 km/h (2 Bft) O-SO 1.00 h 328 W/m 2.4 C 17.3 C
08.06.2005 19:00 16.4 C 38 % 1029.8 hPa 0.0 l/m 4.1 km/h (1 Bft) O-SO 0.83 h 172 W/m 2.1 C 16.4 C
08.06.2005 20:00 14.9 C 43 % 1030.0 hPa 0.0 l/m 2.4 km/h (1 Bft) O-SO 0.88 h 81 W/m 2.3 C 14.9 C
08.06.2005 21:00 12.1 C 55 % 1030.4 hPa 0.0 l/m 0.9 km/h (0 Bft) O-SO 0.18 h 12 W/m 3.2 C 12.1 C
08.06.2005 22:00 9.7 C 67 % 1030.7 hPa 0.0 l/m 4.8 km/h (1 Bft) O-SO 0.00 h 0 W/m 3.8 C 9.3 C
08.06.2005 23:00 8.7 C 74 % 1030.9 hPa 0.0 l/m 0.4 km/h (0 Bft) O 0.00 h 0 W/m 4.3 C 8.7 C
09.06.2005 00:00 8.2 C 76 % 1030.9 hPa 0.0 l/m 1.6 km/h (1 Bft) SO 0.00 h 0 W/m 4.3 C 8.1 C
09.06.2005 01:00 7.4 C 81 % 1030.6 hPa 0.0 l/m 0.1 km/h (0 Bft) N 0.00 h 0 W/m 4.3 C 7.4 C
09.06.2005 02:00 6.3 C 88 % 1030.2 hPa 0.0 l/m 1.7 km/h (1 Bft) O-SO 0.00 h 0 W/m 4.5 C 6.1 C
09.06.2005 03:00 5.1 C 93 % 1030.3 hPa 0.0 l/m 0.0 km/h (0 Bft) N 0.00 h 0 W/m 4.0 C 5.1 C
09.06.2005 04:00 5.1 C 98 % 1029.3 hPa 0.0 l/m 0.0 km/h (0 Bft) N 0.00 h 0 W/m 4.9 C 5.1 C
09.06.2005 05:00 5.3 C 100 % 1029.3 hPa 0.0 l/m 0.3 km/h (0 Bft) O-SO 0.30 h 22 W/m 5.2 C 5.2 C
09.06.2005 06:00 7.5 C 86 % 1029.0 hPa 0.0 l/m 0.2 km/h (0 Bft) N 1.00 h 88 W/m 5.1 C 7.5 C
09.06.2005 07:00 10.0 C 68 % 1028.6 hPa 0.0 l/m 2.4 km/h (1 Bft) N-NO 1.00 h 225 W/m 4.4 C 10.0 C
09.06.2005 08:00 11.3 C 66 % 1028.4 hPa 0.0 l/m 2.7 km/h (1 Bft) NO 1.00 h 330 W/m 5.2 C 11.3 C
09.06.2005 09:00 13.3 C 57 % 1028.1 hPa 0.0 l/m 10.4 km/h (2 Bft) O-SO 1.00 h 482 W/m 5.0 C 13.3 C
09.06.2005 10:00 14.4 C 50 % 1027.2 hPa 0.0 l/m 10.1 km/h (2 Bft) O-SO 0.80 h 583 W/m 4.2 C 14.4 C
09.06.2005 11:00 14.3 C 49 % 1027.0 hPa 0.0 l/m 8.6 km/h (2 Bft) NO 0.40 h 450 W/m 3.8 C 14.3 C
09.06.2005 12:00 15.9 C 45 % 1026.8 hPa 0.0 l/m 14.2 km/h (3 Bft) O-SO 0.63 h 688 W/m 4.1 C 15.9 C
09.06.2005 13:00 16.2 C 41 % 1026.4 hPa 0.0 l/m 15.0 km/h (3 Bft) O-SO 0.40 h 537 W/m 2.9 C 16.2 C
09.06.2005 14:00 17.6 C 36 % 1025.5 hPa 0.0 l/m 16.1 km/h (3 Bft) O-SO 0.70 h 722 W/m 2.4 C 17.6 C
09.06.2005 15:00 17.3 C 36 % 1025.5 hPa 0.0 l/m 10.7 km/h (2 Bft) O 0.40 h 429 W/m 2.1 C 17.3 C
09.06.2005 16:00 17.6 C 32 % 1024.7 hPa 0.0 l/m 11.1 km/h (2 Bft) O-NO 0.60 h 496 W/m 0.6 C 17.6 C
09.06.2005 17:00 17.3 C 33 % 1024.5 hPa 0.0 l/m 18.0 km/h (3 Bft) O-SO 0.60 h 457 W/m 0.9 C 17.3 C
09.06.2005 18:00 16.8 C 32 % 1024.6 hPa 0.0 l/m 18.7 km/h (3 Bft) O-SO 0.77 h 352 W/m -0.1 C 16.8 C
09.06.2005 19:00 16.0 C 33 % 1024.7 hPa 0.0 l/m 13.6 km/h (3 Bft) O-SO 1.00 h 281 W/m -0.1 C 16.0 C
09.06.2005 20:00 14.5 C 37 % 1024.9 hPa 0.0 l/m 6.0 km/h (2 Bft) O 0.95 h 84 W/m 0.1 C 14.5 C
09.06.2005 21:00 12.0 C 48 % 1025.2 hPa 0.0 l/m 0.9 km/h (0 Bft) O-NO 0.18 h 19 W/m 1.2 C 12.0 C
09.06.2005 22:00 9.5 C 61 % 1025.5 hPa 0.0 l/m 1.8 km/h (1 Bft) O-SO 0.00 h 0 W/m 2.4 C 9.4 C
09.06.2005 23:00 7.8 C 71 % 1025.5 hPa 0.0 l/m 0.4 km/h (0 Bft) SO 0.00 h 0 W/m 2.8 C 7.8 C
10.06.2005 00:00 7.0 C 76 % 1024.9 hPa 0.0 l/m 2.3 km/h (1 Bft) SO 0.00 h 0 W/m 3.0 C 6.7 C
10.06.2005 01:00 6.1 C 84 % 1024.9 hPa 0.0 l/m 0.2 km/h (0 Bft) O-SO 0.00 h 0 W/m 3.5 C 6.1 C
10.06.2005 02:00 5.0 C 88 % 1024.1 hPa 0.0 l/m 0.7 km/h (0 Bft) O-SO 0.00 h 0 W/m 3.3 C 5.0 C
10.06.2005 03:00 4.7 C 90 % 1024.1 hPa 0.0 l/m 2.6 km/h (1 Bft) O-SO 0.00 h 0 W/m 3.3 C 4.3 C
10.06.2005 04:00 4.1 C 94 % 1024.2 hPa 0.0 l/m 2.0 km/h (1 Bft) O-SO 0.00 h 0 W/m 3.2 C 3.7 C
10.06.2005 05:00 3.3 C 98 % 1023.5 hPa 0.0 l/m 0.6 km/h (0 Bft) O-SO 0.13 h 15 W/m 3.0 C 3.2 C
10.06.2005 06:00 4.4 C 95 % 1023.1 hPa 0.0 l/m 1.0 km/h (0 Bft) O-SO 0.00 h 46 W/m 3.7 C 4.3 C
10.06.2005 07:00 7.0 C 83 % 1022.8 hPa 0.0 l/m 0.1 km/h (0 Bft) N 0.97 h 283 W/m 4.3 C 7.0 C
10.06.2005 08:00 9.6 C 69 % 1022.4 hPa 0.0 l/m 0.4 km/h (0 Bft) O-SO 1.00 h 442 W/m 4.2 C 9.5 C
10.06.2005 09:00 12.9 C 58 % 1022.0 hPa 0.0 l/m 2.3 km/h (1 Bft) O 1.00 h 587 W/m 4.9 C 12.9 C
10.06.2005 10:00 15.6 C 51 % 1021.4 hPa 0.0 l/m 7.8 km/h (2 Bft) O-SO 1.00 h 716 W/m 5.5 C 15.6 C
10.06.2005 11:00 17.3 C 44 % 1020.3 hPa 0.0 l/m 15.0 km/h (3 Bft) O-SO 0.95 h 817 W/m 4.9 C 17.3 C
10.06.2005 12:00 17.9 C 40 % 1020.3 hPa 0.0 l/m 9.0 km/h (2 Bft) O-SO 0.63 h 704 W/m 4.1 C 17.9 C
10.06.2005 13:00 18.7 C 39 % 1019.6 hPa 0.0 l/m 11.5 km/h (2 Bft) O-SO 0.90 h 821 W/m 4.3 C 18.7 C
10.06.2005 14:00 19.5 C 36 % 1019.0 hPa 0.0 l/m 9.9 km/h (2 Bft) O-SO 0.90 h 739 W/m 4.1 C 19.5 C
10.06.2005 15:00 19.3 C 36 % 1018.3 hPa 0.0 l/m 5.6 km/h (1 Bft) O-SO 0.73 h 635 W/m 3.7 C 19.3 C
10.06.2005 16:00 20.3 C 34 % 1017.9 hPa 0.0 l/m 10.8 km/h (2 Bft) O-SO 0.88 h 654 W/m 4.0 C 20.3 C
10.06.2005 17:00 20.7 C 32 % 1016.9 hPa 0.0 l/m 6.6 km/h (2 Bft) O-SO 0.68 h 424 W/m 3.2 C 20.7 C
10.06.2005 18:00 20.1 C 31 % 1016.9 hPa 0.0 l/m 7.1 km/h (2 Bft) O-SO 1.00 h 406 W/m 2.6 C 20.1 C
10.06.2005 19:00 19.7 C 31 % 1016.9 hPa 0.0 l/m 2.3 km/h (1 Bft) O-SO 1.00 h 253 W/m 2.3 C 19.7 C
10.06.2005 20:00 16.6 C 45 % 1017.3 hPa 0.0 l/m 5.5 km/h (1 Bft) O-SO 0.07 h 47 W/m 4.6 C 16.6 C
10.06.2005 21:00 13.9 C 58 % 1016.9 hPa 0.0 l/m 4.6 km/h (1 Bft) O-SO 0.10 h 12 W/m 5.7 C 13.9 C
10.06.2005 22:00 12.4 C 70 % 1017.7 hPa 0.0 l/m 2.2 km/h (1 Bft) O-SO 0.00 h 0 W/m 7.1 C 12.4 C
10.06.2005 23:00 11.0 C 74 % 1017.1 hPa 0.0 l/m 4.6 km/h (1 Bft) O-SO 0.00 h 0 W/m 6.5 C 11.0 C
11.06.2005 00:00 9.3 C 80 % 1017.3 hPa 0.0 l/m 4.3 km/h (1 Bft) O-SO 0.00 h 0 W/m 6.1 C 9.0 C
11.06.2005 01:00 8.0 C 85 % 1017.1 hPa 0.0 l/m 0.9 km/h (0 Bft) O-SO 0.00 h 0 W/m 5.6 C 8.0 C
11.06.2005 02:00 6.9 C 90 % 1016.6 hPa 0.0 l/m 1.3 km/h (1 Bft) O-SO 0.00 h 0 W/m 5.5 C 6.8 C
11.06.2005 03:00 6.2 C 94 % 1016.7 hPa 0.0 l/m 1.8 km/h (1 Bft) O-SO 0.00 h 0 W/m 5.4 C 6.1 C
11.06.2005 04:00 5.6 C 97 % 1016.7 hPa 0.0 l/m 1.7 km/h (1 Bft) O-SO 0.00 h 0 W/m 5.1 C 5.6 C
11.06.2005 05:00 5.0 C 99 % 1016.8 hPa 0.0 l/m 2.6 km/h (1 Bft) O-SO 0.07 h 13 W/m 4.9 C 4.9 C
11.06.2005 06:00 5.8 C 96 % 1016.6 hPa 0.0 l/m 0.6 km/h (0 Bft) O-SO 0.00 h 48 W/m 5.3 C 5.7 C
11.06.2005 07:00 8.1 C 87 % 1015.6 hPa 0.0 l/m 0.0 km/h (0 Bft) N 0.87 h 251 W/m 6.1 C 8.1 C
11.06.2005 08:00 10.5 C 76 % 1015.0 hPa 0.0 l/m 0.6 km/h (0 Bft) O-SO 1.00 h 443 W/m 6.3 C 10.5 C
11.06.2005 09:00 12.9 C 66 % 1014.7 hPa 0.0 l/m 1.0 km/h (0 Bft) W-NW 0.90 h 532 W/m 6.8 C 12.9 C
11.06.2005 10:00 15.2 C 57 % 1013.5 hPa 0.0 l/m 1.5 km/h (1 Bft) W-NW 1.00 h 692 W/m 6.6 C 15.2 C
11.06.2005 11:00 18.0 C 48 % 1012.7 hPa 0.0 l/m 2.7 km/h (1 Bft) W-NW 0.83 h 702 W/m 6.9 C 18.0 C
11.06.2005 12:00 19.6 C 37 % 1011.7 hPa 0.0 l/m 7.8 km/h (2 Bft) NW 0.93 h 861 W/m 4.6 C 19.6 C
11.06.2005 13:00 21.0 C 33 % 1011.2 hPa 0.0 l/m 15.9 km/h (3 Bft) W 1.00 h 891 W/m 4.1 C 21.0 C
11.06.2005 14:00 21.3 C 34 % 1010.5 hPa 0.0 l/m 16.3 km/h (3 Bft) W-NW 0.97 h 835 W/m 4.7 C 21.3 C
11.06.2005 15:00 22.0 C 33 % 1010.3 hPa 0.0 l/m 21.6 km/h (4 Bft) W-NW 1.00 h 799 W/m 4.8 C 22.0 C
11.06.2005 16:00 22.6 C 31 % 1009.3 hPa 0.0 l/m 15.8 km/h (3 Bft) NW 0.83 h 666 W/m 4.8 C 22.6 C
11.06.2005 17:00 22.4 C 33 % 1009.3 hPa 0.0 l/m 14.6 km/h (3 Bft) W-NW 0.90 h 547 W/m 5.3 C 22.4 C
11.06.2005 18:00 22.2 C 34 % 1008.5 hPa 0.0 l/m 14.9 km/h (3 Bft) NW 0.97 h 378 W/m 5.5 C 22.2 C
11.06.2005 19:00 21.1 C 37 % 1008.4 hPa 0.0 l/m 17.5 km/h (3 Bft) W-NW 0.73 h 159 W/m 5.8 C 21.1 C
11.06.2005 20:00 19.9 C 40 % 1008.6 hPa 0.0 l/m 14.8 km/h (3 Bft) W-NW 0.13 h 49 W/m 6.0 C 19.9 C
11.06.2005 21:00 18.3 C 48 % 1009.1 hPa 0.0 l/m 2.3 km/h (1 Bft) W-NW 0.00 h 7 W/m 7.0 C 18.3 C
11.06.2005 22:00 17.4 C 54 % 1010.0 hPa 0.0 l/m 0.0 km/h (0 Bft) N 0.00 h 0 W/m 7.8 C 17.4 C
11.06.2005 23:00 16.4 C 61 % 1010.8 hPa 0.0 l/m 1.6 km/h (1 Bft) O-SO 0.00 h 0 W/m 9.0 C 16.4 C
12.06.2005 00:00 15.4 C 67 % 1010.3 hPa 0.0 l/m 3.9 km/h (1 Bft) O-NO 0.00 h 0 W/m 9.3 C 15.4 C
12.06.2005 01:00 14.5 C 69 % 1011.3 hPa 0.0 l/m 2.1 km/h (1 Bft) O 0.00 h 0 W/m 9.0 C 14.5 C
12.06.2005 02:00 13.9 C 71 % 1011.4 hPa 0.0 l/m 0.5 km/h (0 Bft) NO 0.00 h 0 W/m 8.7 C 13.9 C
12.06.2005 03:00 13.4 C 73 % 1011.1 hPa 0.0 l/m 0.3 km/h (0 Bft) N 0.00 h 0 W/m 8.6 C 13.4 C
12.06.2005 04:00 12.4 C 78 % 1010.6 hPa 0.0 l/m 0.1 km/h (0 Bft) N 0.00 h 0 W/m 8.6 C 12.4 C
12.06.2005 05:00 11.7 C 81 % 1010.7 hPa 0.0 l/m 0.0 km/h (0 Bft) N 0.00 h 9 W/m 8.5 C 11.7 C
12.06.2005 06:00 11.4 C 83 % 1010.7 hPa 0.0 l/m 0.0 km/h (0 Bft) N 0.00 h 48 W/m 8.5 C 11.4 C
12.06.2005 07:00 12.6 C 77 % 1010.6 hPa 0.0 l/m 0.0 km/h (0 Bft) N 0.77 h 188 W/m 8.5 C 12.6 C
12.06.2005 08:00 13.5 C 71 % 1010.5 hPa 0.0 l/m 0.3 km/h (0 Bft) SO 1.00 h 361 W/m 8.3 C 13.5 C
12.06.2005 09:00 14.8 C 66 % 1010.3 hPa 0.0 l/m 1.6 km/h (1 Bft) W-NW 1.00 h 530 W/m 8.5 C 14.8 C
12.06.2005 10:00 16.2 C 63 % 1010.1 hPa 0.0 l/m 3.3 km/h (1 Bft) W-NW 1.00 h 665 W/m 9.1 C 16.2 C
12.06.2005 11:00 18.0 C 59 % 1009.9 hPa 0.0 l/m 3.1 km/h (1 Bft) W-NW 0.83 h 632 W/m 9.8 C 18.0 C
12.06.2005 12:00 18.9 C 54 % 1009.6 hPa 0.0 l/m 21.7 km/h (4 Bft) W-NW 0.53 h 636 W/m 9.3 C 18.9 C
12.06.2005 13:00 20.6 C 52 % 1008.5 hPa 0.0 l/m 21.5 km/h (4 Bft) W-NW 1.00 h 902 W/m 10.3 C 20.6 C
12.06.2005 14:00 21.1 C 50 % 1008.4 hPa 0.0 l/m 21.4 km/h (4 Bft) W-NW 0.83 h 695 W/m 10.3 C 21.1 C
12.06.2005 15:00 22.2 C 47 % 1008.2 hPa 0.0 l/m 20.3 km/h (4 Bft) W-NW 1.02 h 798 W/m 10.2 C 22.2 C
12.06.2005 16:00 23.4 C 44 % 1007.1 hPa 0.0 l/m 18.2 km/h (3 Bft) W-NW 1.00 h 698 W/m 10.5 C 23.4 C
12.06.2005 17:00 23.8 C 43 % 1007.1 hPa 0.0 l/m 12.2 km/h (2 Bft) W-NW 1.00 h 567 W/m 10.6 C 23.8 C
12.06.2005 18:00 23.9 C 43 % 1006.1 hPa 0.0 l/m 8.8 km/h (2 Bft) W-NW 1.00 h 408 W/m 10.7 C 23.9 C
12.06.2005 19:00 23.0 C 47 % 1006.1 hPa 0.0 l/m 8.0 km/h (2 Bft) W-NW 1.00 h 243 W/m 11.0 C 23.0 C
12.06.2005 20:00 21.5 C 52 % 1006.3 hPa 0.0 l/m 5.7 km/h (1 Bft) W-NW 1.00 h 75 W/m 11.1 C 21.5 C
12.06.2005 21:00 18.6 C 63 % 1006.8 hPa 0.0 l/m 3.5 km/h (1 Bft) O-SO 0.22 h 16 W/m 11.3 C 18.6 C
12.06.2005 22:00 15.9 C 76 % 1008.1 hPa 0.0 l/m 5.7 km/h (1 Bft) O-SO 0.00 h 0 W/m 11.6 C 15.9 C
12.06.2005 23:00 14.2 C 84 % 1008.3 hPa 0.0 l/m 5.3 km/h (1 Bft) O-SO 0.00 h 0 W/m 11.5 C 14.2 C
Min-Datum _ 10.06.05 09.06.05 12.06.05 - 06.06.05 - - - 09.06.05 10.06.05
_ Min-Zeit 05:53 14:05 18:23 - 01:06 - - - 18:21 05:44
Minimum _ 3.0 C 28 % 1006.0 hPa - 0.0 km/h (0 Bft) - - - -1.6 C 1.2 C
Max-Datum _ 12.06.05 07.06.05 08.06.05 07.06.05 12.06.05 - 06.06.05 09.06.05 07.06.05 12.06.05
_ Max-Zeit 17:27 00:28 03:35 00:06 14:20 - 08:32 12:57 00:32 17:27
Maximum _ 24.6 C 100 % 1033.6 hPa 4.9 l/m 37.8 km/h
W-NW (5 Bft)
- 0.05 h 1022 W/m 13.8 C 24.6 C
Durchschnitt _ 13.9 C 63 % 1021.1 hPa #5.8 l/m 6.5 km/h (2 Bft) O-SO #72:42 h 385 W/m 6.1 C 13.9 C

Durchschnitt Minimum Temp.13.2 C
Durchschnitt Maximum Temp.14.7 C
© Kaiko 2005